Louisville, KY (40223)

3:12 PM EST en Enero 28, 2015 (GMT -0500)
Owl Creek Country Club | Change Station
CLOSE
Current Station
Estación meteorológica personal
Location: Anchorage, KY
Altura: 730 ft
Estaciones meteorológicas cercanas

Alt 730 ft 38.28 °N, 85.53 °W | Updated 10 minutes ago

Despejado
Despejado
38.0 ° F
Sensación térmica 38 ° F
N
1.0
Viento Variable Viento desde SSE
Gusts 9.0 mph

Hoy
Alta -- | Baja -- ° F
--% Posibilidad de precipitaciones
Ayer
Alta -- | Baja -- ° F
Precip. -- pul
7:50 AM 5:59 PM
Gibosa creciente, 67% visible
Presión 30.30 pul
Visibilidad 10.0 Millas
Nubes Despejado
Vientos helados 38 ° F
Punto de rocío 19 ° F
Humedad 47%
Precipitaciones 0.00 pul
Espesor de la nieve No disponible.
UV 3 de una escala de 12
Polen .30 de una escala de 12
Calidad del aire No disponible.
Flu Activity No disponible.
METAR KLOU 281953Z 15008KT 10SM CLR 03/M12 A3028 RMK AO2 SLP259 T00331117

More Conditions Fewer Conditions

Presión 30.30 pul
Visibilidad 10.0 Millas
Nubes Despejado
Vientos helados 38 ° F
Punto de rocío 19 ° F
Humedad 47%
Precipitaciones 0.00 pul
Espesor de la nieve No disponible.
UV 3 de una escala de 12
Polen .30 de una escala de 12
Calidad del aire No disponible.
Flu Activity No disponible.
METAR KLOU 281953Z 15008KT 10SM CLR 03/M12 A3028 RMK AO2 SLP259 T00331117

More Conditions Fewer Conditions

10-Day Weather Forecast

Almanac

Astronomía

Jan. 28, 2015 Salida Puesta
Hora real
Crepúsculo civil
Crepúsculo náutico
Crepúsculo astronómico
Luna
Horas de luz
Horas de luz
Tomorrow will be .
, % of the Moon is Illuminated

Extremos de hoy

Máximos del estado Bajos del estado

Community

WunderPhotos

Upload Photos

1,791,251 ¡fotos cargadas!

WunderBlogs® & News

Nearby

Calidad del aire

  Calidad del aire Índice AQ Contaminante
Not available.

Grosos de nieve

Estación Profundido Altura

Actividad de terremotos

Ciudad Distance Mag. Tiempo y dato
Magnitud mínima muestra es 2,5.

Temperaturas de aguas costeras

Lugar Temperatura

Estaciones meteorológicas cercanas